createdAt,value
2022-08-03T00:03:28.061Z,100511.84
2022-08-03T00:08:29.767Z,100506.38
2022-08-03T00:13:31.227Z,100500.66
2022-08-03T00:18:32.735Z,100505.63
2022-08-03T00:23:52.130Z,100502.59
2022-08-03T00:28:54.085Z,100490.91
2022-08-03T00:33:58.172Z,100491.59
2022-08-03T00:39:01.703Z,100499.75
2022-08-03T00:44:03.328Z,100492.31
2022-08-03T00:49:04.906Z,100492.78
2022-08-03T00:54:06.525Z,100484.91
2022-08-03T00:59:09.976Z,100489.94
2022-08-03T01:04:11.425Z,100491.09
2022-08-03T01:09:22.082Z,100486.75
2022-08-03T01:14:35.733Z,100482.25
2022-08-03T01:20:08.045Z,100484.53
2022-08-03T01:25:54.343Z,100479.25
2022-08-03T01:31:01.432Z,100474.28
2022-08-03T01:36:13.173Z,100480.22
2022-08-03T01:41:19.084Z,100472.19
2022-08-03T01:46:22.642Z,100474.81
2022-08-03T01:51:24.174Z,100476.50
2022-08-03T01:56:48.869Z,100462.41
2022-08-03T02:02:28.486Z,100468.09
2022-08-03T02:07:14.157Z,100467.94
2022-08-03T02:12:16.266Z,100464.16
2022-08-03T02:17:38.730Z,100466.53
2022-08-03T02:22:42.853Z,100466.00
2022-08-03T02:27:52.389Z,100472.84
2022-08-03T02:32:55.915Z,100467.28
2022-08-03T02:38:02.214Z,100467.00
2022-08-03T02:43:07.833Z,100465.44
2022-08-03T02:48:11.490Z,100466.19
2022-08-03T02:53:16.147Z,100465.28
2022-08-03T02:58:19.767Z,100463.94
2022-08-03T03:03:22.321Z,100457.31
2022-08-03T03:08:28.164Z,100459.94
2022-08-03T03:13:32.294Z,100455.13
2022-08-03T03:18:34.298Z,100461.47
2022-08-03T03:23:38.381Z,100462.84
2022-08-03T03:28:40.745Z,100464.97
2022-08-03T03:33:42.727Z,100455.41
2022-08-03T03:38:44.455Z,100457.84
2022-08-03T03:43:46.027Z,100463.84
2022-08-03T03:48:50.868Z,100469.25
2022-08-03T03:54:00.502Z,100458.31
2022-08-03T03:59:02.263Z,100463.97
2022-08-03T04:04:04.013Z,100465.72
2022-08-03T04:09:07.336Z,100465.91
2022-08-03T04:14:19.896Z,100461.56
2022-08-03T04:19:35.146Z,100458.72
2022-08-03T04:24:43.040Z,100459.56
2022-08-03T04:29:48.782Z,100469.13
2022-08-03T04:34:50.761Z,100478.06
2022-08-03T04:39:54.401Z,100470.00
2022-08-03T04:45:01.660Z,100470.03
2022-08-03T04:50:09.167Z,100476.16
2022-08-03T04:55:25.672Z,100477.66
2022-08-03T05:00:27.774Z,100488.13
2022-08-03T05:05:36.263Z,100494.72
2022-08-03T05:10:50.921Z,100495.72
2022-08-03T05:15:52.565Z,100501.09
2022-08-03T05:20:54.137Z,100501.03
2022-08-03T05:25:55.702Z,100501.66
2022-08-03T05:30:57.367Z,100497.78
2022-08-03T05:36:03.223Z,100501.72
2022-08-03T05:41:21.061Z,100493.53
2022-08-03T05:46:25.453Z,100490.22
2022-08-03T05:51:27.185Z,100495.09
2022-08-03T05:56:29.065Z,100497.78
2022-08-03T06:01:30.611Z,100492.47
2022-08-03T06:06:32.569Z,100494.34
2022-08-03T06:11:34.066Z,100490.66
2022-08-03T06:16:35.734Z,100488.50
2022-08-03T06:21:37.270Z,100495.88
2022-08-03T06:26:41.431Z,100484.63
2022-08-03T06:31:42.882Z,100487.81
2022-08-03T06:36:44.442Z,100477.19
2022-08-03T06:41:46.044Z,100480.13
2022-08-03T06:46:47.588Z,100476.69
2022-08-03T06:52:03.491Z,100479.41
2022-08-03T06:57:06.488Z,100479.41
2022-08-03T07:02:07.984Z,100475.47
2022-08-03T07:07:09.647Z,100476.81
2022-08-03T07:12:11.527Z,100471.81
2022-08-03T07:17:14.853Z,100474.06
2022-08-03T07:22:16.642Z,100486.59
2022-08-03T07:27:18.388Z,100480.88
2022-08-03T07:32:19.919Z,100484.16
2022-08-03T07:37:21.411Z,100472.06
2022-08-03T07:42:22.984Z,100482.53
2022-08-03T07:47:35.746Z,100477.47
2022-08-03T07:52:37.576Z,100471.78
2022-08-03T07:57:39.167Z,100461.84
2022-08-03T08:02:41.555Z,100460.75
2022-08-03T08:07:43.002Z,100459.69
2022-08-03T08:12:44.487Z,100441.88
2022-08-03T08:17:49.339Z,100438.44
2022-08-03T08:22:50.944Z,100437.97
2022-08-03T08:28:29.332Z,100434.16
2022-08-03T08:33:23.049Z,100433.78
2022-08-03T08:38:26.063Z,100428.25
2022-08-03T08:43:28.222Z,100424.06
2022-08-03T08:48:31.047Z,100421.53
2022-08-03T08:53:36.510Z,100426.00
2022-08-03T08:58:47.001Z,100418.94
2022-08-03T09:03:49.033Z,100419.28
2022-08-03T09:08:50.858Z,100409.53
2022-08-03T09:13:52.374Z,100404.66
2022-08-03T09:18:54.875Z,100400.22
2022-08-03T09:24:03.764Z,100407.19
2022-08-03T09:29:13.835Z,100399.25
2022-08-03T09:34:17.672Z,100392.88
2022-08-03T09:39:41.508Z,100386.69
2022-08-03T09:44:48.149Z,100376.56
2022-08-03T09:50:08.146Z,100376.88
2022-08-03T09:56:30.405Z,100370.03
2022-08-03T10:00:52.239Z,100366.50
2022-08-03T10:05:59.324Z,100355.78
2022-08-03T10:11:01.258Z,100362.06
2022-08-03T10:16:21.403Z,100356.88
2022-08-03T10:21:28.798Z,100353.03
2022-08-03T10:26:31.703Z,100347.03
2022-08-03T10:31:54.480Z,100344.31
2022-08-03T10:37:02.271Z,100344.56
2022-08-03T10:42:04.246Z,100332.28
2022-08-03T10:47:07.469Z,100324.97
2022-08-03T10:52:13.365Z,100320.28
2022-08-03T10:58:01.430Z,100306.06
2022-08-03T11:03:11.357Z,100297.47
2022-08-03T11:08:18.970Z,100295.63
2022-08-03T11:13:22.850Z,100298.41
2022-08-03T11:18:27.067Z,100302.25
2022-08-03T11:24:05.648Z,100294.63
2022-08-03T11:29:27.516Z,100296.81
2022-08-03T11:34:29.099Z,100299.75
2022-08-03T11:39:42.375Z,100296.25
2022-08-03T11:44:46.845Z,100291.91
2022-08-03T11:49:50.924Z,100288.34
2022-08-03T11:54:56.783Z,100287.00
2022-08-03T11:59:58.930Z,100282.09
2022-08-03T12:05:00.413Z,100280.38
2022-08-03T12:10:08.657Z,100279.06
2022-08-03T12:15:10.623Z,100264.28
2022-08-03T12:20:22.137Z,100261.84
2022-08-03T12:25:38.713Z,100260.19
2022-08-03T12:30:41.341Z,100266.50
2022-08-03T12:35:52.298Z,100251.75
2022-08-03T12:40:59.398Z,100259.97
2022-08-03T12:46:18.442Z,100245.44
2022-08-03T12:51:19.907Z,100245.22
2022-08-03T12:56:21.445Z,100234.53
2022-08-03T13:01:23.103Z,100237.81
2022-08-03T13:06:25.255Z,100234.28
2022-08-03T13:11:53.504Z,100234.81
2022-08-03T13:16:49.463Z,100228.00
2022-08-03T13:22:03.739Z,100218.41
2022-08-03T13:27:22.524Z,100225.50
2022-08-03T13:32:28.143Z,100223.56
2022-08-03T13:37:30.213Z,100208.88
2022-08-03T13:42:33.782Z,100217.06
2022-08-03T13:47:35.228Z,100201.78
2022-08-03T13:52:36.716Z,100202.34
2022-08-03T13:58:19.045Z,100199.03
2022-08-03T14:03:12.568Z,100196.28
2022-08-03T14:08:15.143Z,100186.47
2022-08-03T14:13:17.588Z,100176.66
2022-08-03T14:18:29.253Z,100176.66
2022-08-03T14:23:36.814Z,100163.28
2022-08-03T14:28:38.255Z,100166.84
2022-08-03T14:33:40.140Z,100173.41
2022-08-03T14:38:41.643Z,100158.66
2022-08-03T14:44:02.145Z,100158.66
2022-08-03T14:50:36.455Z,100157.00
2022-08-03T14:54:25.726Z,100157.00
2022-08-03T14:59:53.873Z,100153.19
2022-08-03T15:04:51.997Z,100144.44
2022-08-03T15:09:53.607Z,100140.63
2022-08-03T15:14:55.171Z,100131.94
2022-08-03T15:20:01.029Z,100129.16
2022-08-03T15:26:30.292Z,100123.06
2022-08-03T15:30:39.779Z,100118.28
2022-08-03T15:35:41.294Z,100113.38
2022-08-03T15:40:42.756Z,100108.72
2022-08-03T15:45:44.314Z,100107.53
2022-08-03T15:50:45.875Z,100104.38
2022-08-03T15:55:47.329Z,100108.69
2022-08-03T16:00:49.400Z,100099.94
2022-08-03T16:05:51.010Z,100100.09
2022-08-03T16:10:52.529Z,100095.66
2022-08-03T16:15:54.715Z,100094.88
2022-08-03T16:20:56.198Z,100087.94
2022-08-03T16:25:57.711Z,100084.19
2022-08-03T16:30:59.422Z,100088.31
2022-08-03T16:36:01.198Z,100080.59
2022-08-03T16:41:02.755Z,100078.00
2022-08-03T16:46:04.231Z,100080.97
2022-08-03T16:51:05.820Z,100071.66
2022-08-03T16:56:10.691Z,100067.09
2022-08-03T17:01:21.126Z,100077.63
2022-08-03T17:06:25.983Z,100076.47
2022-08-03T17:11:38.224Z,100086.97
2022-08-03T17:16:51.990Z,100080.94
2022-08-03T17:22:10.630Z,100077.34
2022-08-03T17:28:49.100Z,100082.53
2022-08-03T17:32:56.872Z,100078.75
2022-08-03T17:38:03.683Z,100072.97
2022-08-03T17:44:13.454Z,100076.41
2022-08-03T17:48:32.160Z,100070.34
2022-08-03T17:53:38.731Z,100084.03
2022-08-03T17:59:10.527Z,100093.06
2022-08-03T18:04:12.297Z,100087.59
2022-08-03T18:10:06.197Z,100096.44
2022-08-03T18:14:57.284Z,100091.31
2022-08-03T18:20:11.647Z,100096.25
2022-08-03T18:25:42.357Z,100089.97
2022-08-03T18:30:53.196Z,100096.53
2022-08-03T18:35:57.621Z,100094.25
2022-08-03T18:40:59.063Z,100103.38
2022-08-03T18:46:06.163Z,100098.13
2022-08-03T18:51:28.820Z,100101.16
2022-08-03T18:56:45.787Z,100111.03
2022-08-03T19:02:00.914Z,100114.13
2022-08-03T19:07:08.062Z,100117.88
2022-08-03T19:12:27.277Z,100119.78
2022-08-03T19:17:36.189Z,100132.88
2022-08-03T19:22:40.635Z,100144.84
2022-08-03T19:27:48.295Z,100145.44
2022-08-03T19:32:51.068Z,100158.78
2022-08-03T19:37:52.606Z,100156.41
2022-08-03T19:43:03.436Z,100157.09
2022-08-03T19:48:11.601Z,100161.59
2022-08-03T19:53:13.303Z,100155.56
2022-08-03T19:58:17.810Z,100164.16
2022-08-03T20:03:43.332Z,100158.97
2022-08-03T20:08:45.485Z,100169.16
2022-08-03T20:13:54.720Z,100172.53
2022-08-03T20:18:56.309Z,100159.13
2022-08-03T20:24:23.515Z,100163.09
2022-08-03T20:30:05.370Z,100168.78
2022-08-03T20:34:50.569Z,100169.03
2022-08-03T20:39:54.539Z,100170.41
2022-08-03T20:45:04.405Z,100170.19
2022-08-03T20:50:08.920Z,100164.88
2022-08-03T20:55:12.984Z,100176.66
2022-08-03T21:00:16.751Z,100165.63
2022-08-03T21:05:30.925Z,100178.81
2022-08-03T21:10:42.049Z,100169.91
2022-08-03T21:16:04.863Z,100175.91
2022-08-03T21:21:14.566Z,100175.53
2022-08-03T21:26:18.732Z,100168.44
2022-08-03T21:31:21.388Z,100161.53
2022-08-03T21:36:30.314Z,100167.13
2022-08-03T21:41:32.543Z,100167.41
2022-08-03T21:46:37.122Z,100167.34
2022-08-03T21:51:39.670Z,100167.19
2022-08-03T21:56:42.919Z,100158.13
2022-08-03T22:01:48.859Z,100167.38
2022-08-03T22:06:51.103Z,100173.78
2022-08-03T22:11:53.019Z,100165.94
2022-08-03T22:16:54.760Z,100168.72
2022-08-03T22:21:56.728Z,100175.56
2022-08-03T22:27:01.219Z,100178.88
2022-08-03T22:32:02.972Z,100177.06
2022-08-03T22:37:06.244Z,100181.44
2022-08-03T22:42:08.289Z,100177.50
2022-08-03T22:47:10.468Z,100172.56
2022-08-03T22:52:13.265Z,100183.03
2022-08-03T22:57:15.873Z,100184.34
2022-08-03T23:02:21.116Z,100179.50
2022-08-03T23:07:37.161Z,100186.81
2022-08-03T23:12:39.992Z,100190.94
2022-08-03T23:17:58.081Z,100188.50
2022-08-03T23:23:00.660Z,100189.50
2022-08-03T23:28:05.160Z,100189.13
2022-08-03T23:33:09.089Z,100195.16
2022-08-03T23:38:22.808Z,100189.38
2022-08-03T23:43:44.863Z,100196.00
2022-08-03T23:48:53.830Z,100196.63
2022-08-03T23:54:32.120Z,100197.44
2022-08-03T23:59:59.503Z,100198.47
